Time;durP1;ratioP1;P1;durP2;ratioP2;P2;SDS_P1;SDS_P2;PMS_P1;PMS_P2;Temp;Humidity;BMP_temperature;BMP_pressure;BME280_temperature;BME280_humidity;BME280_pressure;Samples;Min_cycle;Max_cycle;Signal;HPM_P1;HPM_P2
2022/09/03 00:01:26;;;;;;;1.70;1.60;;;;;;;13.04;100.00;99329.38;4404857;32;20054;-68
2022/09/03 00:04:07;;;;;;;3.58;1.90;;;;;;;13.03;100.00;99341.25;4400120;32;20030;-67
2022/09/03 00:06:47;;;;;;;1.90;1.58;;;;;;;12.98;100.00;99329.59;4398663;32;20404;-68
2022/09/03 00:09:37;;;;;;;3.58;1.58;;;;;;;12.97;100.00;99331.50;4384973;32;20074;-67
2022/09/03 00:12:18;;;;;;;2.85;1.48;;;;;;;13.23;100.00;99342.50;4380774;32;20047;-67
2022/09/03 00:14:54;;;;;;;2.90;1.80;;;;;;;13.10;100.00;99324.84;4384637;32;20337;-67
2022/09/03 00:17:26;;;;;;;1.40;1.30;;;;;;;13.06;100.00;99318.31;4392966;32;20072;-68
2022/09/03 00:20:11;;;;;;;;;;;;;;;13.22;100.00;99348.97;4399032;32;20049;-68
2022/09/03 00:22:43;;;;;;;2.22;1.87;;;;;;;13.33;100.00;99339.88;4397747;32;19947;-68
2022/09/03 00:25:13;;;;;;;;;;;;;;;13.15;100.00;99334.88;4400422;32;20039;-69
2022/09/03 00:27:42;;;;;;;2.00;1.37;;;;;;;13.17;100.00;99346.25;4409598;32;20286;-68
2022/09/03 00:30:14;;;;;;;1.83;1.65;;;;;;;12.73;100.00;99303.97;4414486;32;20039;-67
2022/09/03 00:33:09;;;;;;;2.10;1.80;;;;;;;12.99;100.00;99340.16;4405875;32;20162;-67
2022/09/03 00:35:38;;;;;;;4.57;1.50;;;;;;;12.80;100.00;99309.19;4399779;32;20039;-68
2022/09/03 00:38:05;;;;;;;1.75;1.37;;;;;;;12.78;100.00;99338.34;4407003;32;20090;-68
2022/09/03 00:40:43;;;;;;;9.90;1.70;;;;;;;12.51;100.00;99309.47;4432561;32;20058;-68
2022/09/03 00:43:21;;;;;;;4.15;1.73;;;;;;;13.02;100.00;99345.06;4429724;32;20075;-67
2022/09/03 00:46:21;;;;;;;1.80;1.70;;;;;;;12.96;100.00;99340.66;4429786;32;20166;-67
2022/09/03 00:49:06;;;;;;;3.62;1.58;;;;;;;12.92;100.00;99339.53;4430421;32;20061;-67
2022/09/03 00:51:53;;;;;;;4.90;1.62;;;;;;;12.72;100.00;99335.59;4445404;32;20034;-69
2022/09/03 00:54:28;;;;;;;1.65;1.55;;;;;;;12.84;100.00;99340.00;4429773;32;20266;-67
2022/09/03 00:57:13;;;;;;;7.03;1.62;;;;;;;12.75;100.00;99328.88;4425287;32;20073;-68
2022/09/03 00:59:59;;;;;;;2.00;1.60;;;;;;;12.97;100.00;99339.59;4428692;32;20487;-68
2022/09/03 01:02:55;;;;;;;2.20;2.03;;;;;;;12.49;100.00;99330.50;4429080;32;20386;-67
2022/09/03 01:05:28;;;;;;;3.85;1.75;;;;;;;12.92;100.00;99338.75;4427523;32;20068;-68
2022/09/03 01:08:22;;;;;;;3.75;1.50;;;;;;;12.85;100.00;99301.13;4427838;32;20089;-67
2022/09/03 01:10:58;;;;;;;2.78;1.50;;;;;;;13.04;100.00;99337.50;4428061;32;20153;-68
2022/09/03 01:13:39;;;;;;;3.00;1.58;;;;;;;12.92;100.00;99334.12;4413671;32;20140;-68
2022/09/03 01:16:20;;;;;;;2.87;1.33;;;;;;;13.02;100.00;99339.66;4413879;32;20048;-71
2022/09/03 01:19:24;;;;;;;2.22;1.58;;;;;;;12.88;100.00;99333.84;4412934;32;20026;-68
2022/09/03 01:22:19;;;;;;;2.25;1.48;;;;;;;12.90;100.00;99325.47;4412143;32;20360;-68
2022/09/03 01:25:16;;;;;;;6.87;1.50;;;;;;;12.85;100.00;99328.16;4413942;32;20389;-68
2022/09/03 01:28:09;;;;;;;3.70;1.40;;;;;;;12.65;100.00;99309.84;4413889;32;20060;-68
2022/09/03 01:30:41;;;;;;;4.22;1.50;;;;;;;12.77;100.00;99325.91;4411687;32;20072;-72
2022/09/03 01:33:37;;;;;;;8.43;2.05;;;;;;;12.70;100.00;99321.53;4413845;32;20475;-68
2022/09/03 01:36:27;;;;;;;4.15;1.23;;;;;;;12.77;100.00;99315.13;4406073;32;20383;-71
2022/09/03 01:39:03;;;;;;;6.68;1.50;;;;;;;12.16;100.00;99235.97;4423681;32;20360;-68
2022/09/03 01:44:39;;;;;;;1.23;1.20;;;;;;;12.62;100.00;99319.31;4424361;32;20056;-68
2022/09/03 01:47:11;;;;;;;1.87;1.25;;;;;;;12.56;100.00;99304.12;4428181;32;20333;-70
2022/09/03 01:49:49;;;;;;;4.85;2.55;;;;;;;12.18;100.00;99293.19;4429089;32;20337;-68
2022/09/03 01:52:58;;;;;;;4.87;1.40;;;;;;;12.62;100.00;99321.16;4423343;32;20310;-68
2022/09/03 01:55:55;;;;;;;1.87;1.30;;;;;;;12.60;100.00;99326.03;4384845;32;20365;-68
2022/09/03 01:58:46;;;;;;;1.95;1.30;;;;;;;12.57;100.00;99321.94;4414218;32;20046;-68
2022/09/03 02:01:23;;;;;;;5.18;2.33;;;;;;;12.37;100.00;99283.97;4415673;32;20060;-68
2022/09/03 02:03:50;;;;;;;2.03;1.40;;;;;;;12.39;100.00;99314.22;4419933;32;20042;-69
2022/09/03 02:06:19;;;;;;;4.32;1.67;;;;;;;12.11;100.00;99313.34;4413739;32;20054;-69
2022/09/03 02:08:45;;;;;;;2.20;1.80;;;;;;;12.12;100.00;99318.50;4413433;32;20034;-67
2022/09/03 02:11:12;;;;;;;4.70;1.52;;;;;;;12.00;100.00;99312.44;4413754;32;20431;-67
2022/09/03 02:13:42;;;;;;;5.50;3.05;;;;;;;11.74;100.00;99270.81;4413162;32;20042;-70
2022/09/03 02:16:34;;;;;;;2.08;1.52;;;;;;;12.17;100.00;99309.66;4412665;32;20045;-67
2022/09/03 02:19:06;;;;;;;1.92;1.48;;;;;;;12.17;100.00;99302.38;4408889;32;20076;-67
2022/09/03 02:21:35;;;;;;;2.90;1.77;;;;;;;12.05;100.00;99292.81;4415900;32;20041;-68
2022/09/03 02:24:03;;;;;;;2.92;1.40;;;;;;;11.90;100.00;99269.09;4428541;32;20064;-68
2022/09/03 02:26:30;;;;;;;2.12;1.40;;;;;;;12.04;100.00;99316.25;4429103;32;20026;-68
2022/09/03 02:28:57;;;;;;;1.95;1.83;;;;;;;11.91;100.00;99314.72;4427618;32;20069;-68
2022/09/03 02:31:23;;;;;;;2.83;1.62;;;;;;;11.94;100.00;99316.97;4417615;32;20064;-71
2022/09/03 02:33:51;;;;;;;6.95;1.98;;;;;;;11.63;100.00;99276.09;4427112;32;20391;-68
2022/09/03 02:36:23;;;;;;;2.30;1.37;;;;;;;11.93;100.00;99304.53;4428744;32;20423;-69
2022/09/03 02:38:52;;;;;;;2.72;2.15;;;;;;;12.05;100.00;99314.41;4451874;32;20045;-68
2022/09/03 02:41:18;;;;;;;4.78;2.40;;;;;;;11.83;100.00;99312.47;4427878;32;20027;-71
2022/09/03 02:43:57;;;;;;;10.35;1.98;;;;;;;11.83;100.00;99312.47;4427438;32;20411;-68
2022/09/03 02:46:32;;;;;;;2.20;1.60;;;;;;;11.87;100.00;99312.78;4428616;32;20085;-68
2022/09/03 02:48:58;;;;;;;2.62;1.48;;;;;;;11.80;100.00;99312.97;4428529;32;20050;-68
2022/09/03 02:51:25;;;;;;;4.50;2.55;;;;;;;11.38;100.00;99281.16;4426490;32;20099;-67
2022/09/03 02:53:51;;;;;;;2.45;1.62;;;;;;;11.69;100.00;99317.41;4428520;32;20089;-68
2022/09/03 02:56:18;;;;;;;1.98;1.50;;;;;;;11.53;100.00;99286.72;4425799;32;20412;-69
2022/09/03 02:58:44;;;;;;;2.42;1.85;;;;;;;10.95;100.00;99205.38;4415954;32;20096;-68
2022/09/03 03:01:10;;;;;;;3.53;1.60;;;;;;;11.44;100.00;99280.16;4414171;32;20064;-69
2022/09/03 03:03:37;;;;;;;2.90;2.15;;;;;;;11.57;100.00;99309.44;4415598;32;20042;-68
2022/09/03 03:06:04;;;;;;;2.85;1.30;;;;;;;11.56;100.00;99317.78;4414672;32;20027;-68
2022/09/03 03:08:33;;;;;;;1.80;1.70;;;;;;;11.65;100.00;99316.28;4415152;32;20374;-68
2022/09/03 03:11:00;;;;;;;3.55;2.28;;;;;;;11.14;100.00;99251.72;4414657;32;20070;-72
2022/09/03 03:13:29;;;;;;;2.28;1.55;;;;;;;11.52;100.00;99314.78;4431910;32;20022;-68
2022/09/03 03:16:00;;;;;;;1.52;1.42;;;;;;;11.61;100.00;99310.56;4446447;32;20038;-68
2022/09/03 03:18:27;;;;;;;1.60;1.50;;;;;;;11.76;100.00;99304.56;4442662;32;20031;-68
2022/09/03 03:20:53;;;;;;;4.28;1.55;;;;;;;11.65;100.00;99310.91;4444109;32;20030;-71
2022/09/03 03:23:20;;;;;;;2.40;1.42;;;;;;;11.36;100.00;99300.28;4445569;32;20157;-68
2022/09/03 03:25:47;;;;;;;3.08;1.67;;;;;;;11.54;100.00;99315.34;4446483;32;20033;-67
2022/09/03 03:28:14;;;;;;;3.67;1.67;;;;;;;11.41;100.00;99304.91;4446431;32;20447;-67
2022/09/03 03:30:41;;;;;;;2.37;1.50;;;;;;;11.27;100.00;99267.50;4439352;32;20533;-71
2022/09/03 03:33:09;;;;;;;2.17;1.70;;;;;;;11.36;100.00;99278.69;4460747;32;20049;-68
2022/09/03 03:35:35;;;;;;;3.70;2.15;;;;;;;11.48;100.00;99289.38;4464486;32;20393;-68
2022/09/03 03:38:03;;;;;;;2.22;1.62;;;;;;;11.06;100.00;99235.97;4462071;32;20175;-68
2022/09/03 03:40:30;;;;;;;2.10;1.52;;;;;;;11.51;100.00;99315.84;4464059;32;20038;-67
2022/09/03 03:42:57;;;;;;;2.22;1.67;;;;;;;11.25;100.00;99291.22;4461682;32;20051;-68
2022/09/03 03:45:23;;;;;;;5.57;2.10;;;;;;;11.53;100.00;99324.47;4430559;32;20383;-67
2022/09/03 03:47:50;;;;;;;1.70;1.60;;;;;;;11.37;100.00;99309.16;4423042;32;20025;-67
2022/09/03 03:50:16;;;;;;;1.65;1.30;;;;;;;11.43;100.00;99321.66;4383129;32;20041;-68
2022/09/03 03:52:43;;;;;;;3.12;1.52;;;;;;;11.45;100.00;99327.59;4383464;32;20065;-71
2022/09/03 03:55:09;;;;;;;2.87;1.70;;;;;;;11.29;100.00;99290.72;4384391;32;20027;-70
2022/09/03 03:57:35;;;;;;;1.42;1.33;;;;;;;11.55;100.00;99326.94;4406610;32;20039;-69
2022/09/03 04:00:03;;;;;;;2.22;1.08;;;;;;;11.30;100.00;99292.37;4412446;32;20117;-70
2022/09/03 04:02:40;;;;;;;5.57;1.73;;;;;;;11.22;100.00;99258.56;4397765;32;20098;-70
2022/09/03 04:05:14;;;;;;;2.53;1.60;;;;;;;11.45;100.00;99333.84;4399329;32;20496;-70
2022/09/03 04:07:40;;;;;;;3.28;1.75;;;;;;;11.41;100.00;99326.50;4399771;32;20022;-69
2022/09/03 04:10:07;;;;;;;4.95;1.80;;;;;;;11.13;100.00;99298.56;4398197;32;20178;-69
2022/09/03 04:12:34;;;;;;;2.60;1.92;;;;;;;11.24;100.00;99294.97;4402338;32;20092;-69
2022/09/03 04:15:01;;;;;;;1.98;1.60;;;;;;;11.25;100.00;99299.31;4396923;32;20034;-69
2022/09/03 04:17:27;;;;;;;2.12;1.60;;;;;;;11.49;100.00;99323.37;4412081;32;20054;-70
2022/09/03 04:19:54;;;;;;;4.28;1.83;;;;;;;11.36;100.00;99302.13;4413481;32;20070;-69
2022/09/03 04:22:20;;;;;;;1.73;1.60;;;;;;;11.57;100.00;99341.81;4409899;32;20168;-69
2022/09/03 04:24:46;;;;;;;5.45;2.17;;;;;;;11.22;100.00;99277.44;4414396;32;20064;-71
2022/09/03 04:27:13;;;;;;;4.50;2.03;;;;;;;11.61;100.00;99342.12;4374234;32;20061;-69
2022/09/03 04:29:39;;;;;;;1.60;1.50;;;;;;;11.54;100.00;99319.94;4384850;32;20217;-70
2022/09/03 04:34:57;;;;;;;3.25;1.83;;;;;;;11.62;100.00;99306.81;4357489;32;20052;-71
2022/09/03 04:37:24;;;;;;;2.03;1.90;;;;;;;11.72;100.00;99332.28;4359331;32;20140;-70
2022/09/03 04:39:51;;;;;;;2.53;1.67;;;;;;;11.63;100.00;99294.97;4369088;32;20032;-73
2022/09/03 04:42:18;;;;;;;3.90;1.30;;;;;;;11.40;100.00;99266.34;4346572;32;20036;-71
2022/09/03 04:44:44;;;;;;;3.00;1.70;;;;;;;11.99;100.00;99332.41;4337289;33;20079;-75
2022/09/03 04:47:10;;;;;;;2.72;1.70;;;;;;;12.01;100.00;99332.16;4338787;33;20040;-71
2022/09/03 04:49:38;;;;;;;5.50;2.58;;;;;;;12.03;100.00;99338.94;4339658;33;20029;-70
2022/09/03 04:52:05;;;;;;;3.00;1.50;;;;;;;12.05;100.00;99330.59;4351793;32;20055;-72
2022/09/03 04:54:31;;;;;;;2.05;1.67;;;;;;;11.99;100.00;99300.00;4399163;32;20039;-75
2022/09/03 04:56:58;;;;;;;4.80;1.75;;;;;;;11.98;100.00;99303.78;4400605;32;20038;-72
2022/09/03 04:59:24;;;;;;;2.12;1.92;;;;;;;12.22;100.00;99336.72;4407682;32;20489;-73
2022/09/03 05:01:51;;;;;;;4.07;1.58;;;;;;;12.17;100.00;99328.53;4388197;32;20031;-70
2022/09/03 05:04:18;;;;;;;4.60;2.15;;;;;;;12.26;100.00;99343.22;4383543;32;20034;-69
2022/09/03 05:06:45;;;;;;;3.42;1.70;;;;;;;12.25;100.00;99347.00;4395513;32;20060;-72
2022/09/03 05:09:11;;;;;;;2.45;1.85;;;;;;;12.21;100.00;99342.38;4389246;32;20097;-69
2022/09/03 05:11:38;;;;;;;2.55;1.92;;;;;;;11.97;100.00;99302.16;4417129;32;20067;-69
2022/09/03 05:14:04;;;;;;;2.03;1.80;;;;;;;12.09;100.00;99299.31;4430578;32;20037;-70
2022/09/03 05:16:31;;;;;;;2.45;1.83;;;;;;;12.44;100.00;99349.38;4429035;32;20437;-73
2022/09/03 05:18:59;;;;;;;1.75;1.40;;;;;;;11.80;100.00;99240.13;4430226;32;20034;-70
2022/09/03 05:21:27;;;;;;;3.60;2.08;;;;;;;12.45;100.00;99308.59;4433614;32;20034;-68
2022/09/03 05:23:54;;;;;;;6.50;2.00;;;;;;;12.74;100.00;99354.25;4377806;32;20124;-72
2022/09/03 05:26:23;;;;;;;1.87;1.77;;;;;;;12.46;100.00;99304.00;4352045;32;20049;-70
2022/09/03 05:28:59;;;;;;;5.00;1.80;;;;;;;12.64;100.00;99306.34;4350309;32;20113;-69
2022/09/03 05:31:27;;;;;;;2.47;1.83;;;;;;;12.81;100.00;99316.22;4351176;32;20043;-71
2022/09/03 05:33:59;;;;;;;5.35;2.15;;;;;;;12.96;100.00;99332.56;4378511;32;20085;-70
2022/09/03 05:36:30;;;;;;;2.08;1.98;;;;;;;13.08;100.00;99357.53;4380164;32;20031;-70
2022/09/03 05:38:58;;;;;;;2.58;2.25;;;;;;;13.16;100.00;99360.81;4383773;32;20401;-69
2022/09/03 05:41:25;;;;;;;4.60;1.60;;;;;;;12.82;100.00;99313.25;4367200;32;20047;-69
2022/09/03 05:43:57;;;;;;;6.87;2.50;;;;;;;12.82;100.00;99325.97;4366956;32;20027;-68
2022/09/03 05:46:30;;;;;;;5.53;1.90;;;;;;;13.13;100.00;99366.75;4369654;32;20632;-73
2022/09/03 05:49:00;;;;;;;;;;;;;;;13.12;100.00;99351.63;4367231;32;20838;-68
2022/09/03 05:51:28;;;;;;;5.32;2.00;;;;;;;13.38;100.00;99358.84;4368278;32;19931;-69
2022/09/03 05:53:54;;;;;;;2.75;1.92;;;;;;;12.62;100.00;99273.38;4369196;32;20111;-69
2022/09/03 05:56:23;;;;;;;4.57;2.20;;;;;;;12.90;100.00;99320.06;4386330;32;20094;-73
2022/09/03 05:58:51;;;;;;;3.60;1.65;;;;;;;13.33;100.00;99361.53;4430157;32;20101;-70
2022/09/03 06:01:20;;;;;;;1.48;1.37;;;;;;;12.86;100.00;99278.41;4432084;32;20021;-70
2022/09/03 06:03:53;;;;;;;5.05;1.73;;;;;;;13.44;100.00;99363.22;4430798;32;20065;-70
2022/09/03 06:06:26;;;;;;;8.15;1.60;;;;;;;13.62;100.00;99353.06;4431534;32;20092;-74
2022/09/03 06:08:54;;;;;;;4.85;2.20;;;;;;;13.63;100.00;99357.41;4430214;32;20077;-72
2022/09/03 06:11:25;;;;;;;4.75;1.75;;;;;;;13.75;100.00;99363.44;4416179;32;20097;-69
2022/09/03 06:13:52;;;;;;;10.18;2.50;;;;;;;12.78;100.00;99224.84;4431550;32;20077;-70
2022/09/03 06:16:19;;;;;;;4.43;2.45;;;;;;;13.47;100.00;99334.03;4431109;32;20402;-71
2022/09/03 06:18:45;;;;;;;1.62;1.52;;;;;;;13.54;100.00;99340.03;4427952;32;20449;-73
2022/09/03 06:21:13;;;;;;;5.87;1.80;;;;;;;13.81;100.00;99377.78;4439871;32;20091;-70
2022/09/03 06:23:40;;;;;;;7.43;1.50;;;;;;;13.77;100.00;99372.09;4432087;32;20042;-71
2022/09/03 06:26:12;;;;;;;2.58;1.98;;;;;;;14.07;100.00;99370.63;4408991;32;20026;-74
2022/09/03 06:28:45;;;;;;;2.90;1.40;;;;;;;14.12;100.00;99330.03;4400783;32;20068;-70
2022/09/03 06:31:14;;;;;;;2.50;1.30;;;;;;;13.97;100.00;99289.34;4400436;32;20042;-70
2022/09/03 06:33:42;;;;;;;6.18;1.45;;;;;;;14.39;100.00;99355.28;4368518;32;20459;-70
2022/09/03 06:36:14;;;;;;;1.60;1.25;;;;;;;14.26;100.00;99337.63;4370037;32;20263;-72
2022/09/03 06:38:43;;;;;;;1.60;1.50;;;;;;;14.50;100.00;99374.00;4361054;32;20055;-68
2022/09/03 06:41:23;;;;;;;6.07;1.55;;;;;;;14.11;100.00;99304.00;4372439;32;20039;-69
2022/09/03 06:44:01;;;;;;;1.40;1.40;;;;;;;14.72;100.00;99362.16;4381979;32;20072;-70
2022/09/03 06:46:28;;;;;;;2.25;1.50;;;;;;;14.81;100.00;99363.25;4374795;32;20875;-71
2022/09/03 06:48:55;;;;;;;2.53;1.73;;;;;;;14.68;100.00;99377.34;4369646;32;20051;-71
2022/09/03 06:51:26;;;;;;;4.32;1.27;;;;;;;14.68;100.00;99363.78;4384674;32;20390;-71
2022/09/03 06:53:58;;;;;;;9.20;2.78;;;;;;;14.50;100.00;99309.00;4337378;33;20032;-72
2022/09/03 06:56:25;;;;;;;6.25;1.80;;;;;;;14.77;100.00;99340.47;4346107;32;20400;-71
2022/09/03 06:58:54;;;;;;;1.65;1.30;;;;;;;14.94;100.00;99378.16;4381512;32;20027;-70
2022/09/03 07:01:22;;;;;;;5.90;1.70;;;;;;;14.84;100.00;99345.66;4329960;33;20115;-70
2022/09/03 07:03:57;;;;;;;5.60;1.45;;;;;;;15.12;100.00;99355.13;4337499;32;20445;-69
2022/09/03 07:07:47;;;;;;;5.20;1.77;;;;;;;16.53;100.00;99363.44;4493852;31;20075;-72
2022/09/03 07:10:19;;;;;;;1.40;1.30;;;;;;;16.53;100.00;99363.44;4458415;32;20096;-75
2022/09/03 07:12:45;;;;;;;2.50;1.85;;;;;;;16.13;100.00;99362.53;4459751;32;20446;-71
2022/09/03 07:15:12;;;;;;;5.43;1.60;;;;;;;16.36;100.00;99352.13;4450242;32;20030;-72
2022/09/03 07:17:39;;;;;;;6.30;1.70;;;;;;;16.28;99.77;99351.59;4451370;32;20037;-69
2022/09/03 07:20:06;;;;;;;3.70;1.87;;;;;;;16.51;100.00;99369.16;4450031;32;20048;-70
2022/09/03 07:22:32;;;;;;;8.25;1.52;;;;;;;16.25;100.00;99319.53;4421986;32;20030;-70
2022/09/03 07:24:59;;;;;;;2.42;1.40;;;;;;;16.37;100.00;99343.69;4420758;32;21118;-70
2022/09/03 07:27:25;;;;;;;3.40;1.50;;;;;;;16.49;100.00;99362.34;4410488;32;20396;-70
2022/09/03 07:29:51;;;;;;;6.95;1.52;;;;;;;16.55;100.00;99349.56;4412986;32;20381;-69
2022/09/03 07:32:18;;;;;;;5.72;1.67;;;;;;;16.70;97.11;99377.47;4396158;32;20048;-74
2022/09/03 07:34:44;;;;;;;2.33;1.60;;;;;;;16.59;96.35;99334.28;4406225;32;20038;-69
2022/09/03 07:37:10;;;;;;;2.62;1.58;;;;;;;16.63;97.27;99336.16;4410124;32;20387;-69
2022/09/03 07:39:37;;;;;;;1.73;1.62;;;;;;;16.93;98.04;99377.88;4352898;33;20044;-69
2022/09/03 07:42:04;;;;;;;2.65;1.83;;;;;;;16.92;97.65;99362.66;4376600;32;20031;-69
2022/09/03 07:44:30;;;;;;;3.53;1.40;;;;;;;16.96;95.57;99349.28;4389733;32;20031;-76
2022/09/03 07:46:57;;;;;;;3.12;2.00;;;;;;;16.77;99.59;99308.34;4367059;32;20073;-70
2022/09/03 07:49:23;;;;;;;1.67;1.52;;;;;;;17.21;89.69;99367.31;4367547;32;20035;-69
2022/09/03 07:51:51;;;;;;;1.75;1.25;;;;;;;17.02;82.65;99348.16;4368697;32;20084;-69
2022/09/03 07:54:20;;;;;;;1.55;1.45;;;;;;;17.31;83.93;99371.84;4377299;32;20054;-74
2022/09/03 07:56:47;;;;;;;1.48;1.20;;;;;;;17.11;78.35;99345.66;4375189;32;20031;-70
2022/09/03 07:59:13;;;;;;;5.55;2.12;;;;;;;17.20;85.02;99355.63;4370950;32;20028;-68
2022/09/03 08:01:40;;;;;;;1.40;1.20;;;;;;;17.42;82.89;99379.66;4365364;32;20370;-70
2022/09/03 08:04:06;;;;;;;1.48;1.37;;;;;;;17.53;83.51;99374.91;4387354;32;20542;-70
2022/09/03 08:06:33;;;;;;;1.73;1.30;;;;;;;17.43;81.48;99354.03;4390155;32;20103;-72
2022/09/03 08:09:03;;;;;;;1.33;1.20;;;;;;;17.48;75.69;99383.13;4393590;32;20499;-70
2022/09/03 08:11:30;;;;;;;2.15;1.60;;;;;;;17.32;77.42;99352.50;4405741;32;20089;-70
2022/09/03 08:14:01;;;;;;;5.82;1.60;;;;;;;17.50;75.97;99377.38;4405242;32;20072;-71
2022/09/03 08:16:33;;;;;;;4.15;1.37;;;;;;;17.76;74.12;99388.84;4402625;32;20433;-69
2022/09/03 08:18:59;;;;;;;1.50;1.42;;;;;;;17.67;66.32;99358.69;4401825;32;20038;-69
2022/09/03 08:21:26;;;;;;;2.97;1.42;;;;;;;17.96;62.96;99382.38;4402891;32;20027;-69
2022/09/03 08:24:01;;;;;;;4.25;1.50;;;;;;;18.08;66.64;99385.53;4428566;32;20169;-69
2022/09/03 08:26:33;;;;;;;4.32;1.37;;;;;;;18.07;65.25;99392.06;4402006;32;20447;-74
2022/09/03 08:29:00;;;;;;;6.72;1.37;;;;;;;17.90;66.54;99359.03;4382124;32;20120;-70
2022/09/03 08:31:28;;;;;;;7.72;2.05;;;;;;;17.75;62.33;99360.78;4385189;32;20415;-68
2022/09/03 08:33:56;;;;;;;2.42;1.50;;;;;;;17.86;62.30;99393.38;4368849;32;20076;-72
2022/09/03 08:36:25;;;;;;;1.48;1.37;;;;;;;17.70;65.67;99385.34;4370064;32;20073;-68
2022/09/03 08:38:55;;;;;;;5.20;1.50;;;;;;;18.13;69.09;99388.19;4342028;33;20348;-68
2022/09/03 08:41:44;;;;;;;6.12;1.87;;;;;;;17.76;59.36;99378.75;4327308;33;20048;-68
2022/09/03 08:44:23;;;;;;;12.00;1.62;;;;;;;17.86;60.75;99366.13;4326293;33;20048;-69
2022/09/03 08:46:52;;;;;;;1.10;0.95;;;;;;;17.73;62.77;99363.00;4312239;33;20110;-69
2022/09/03 08:49:28;;;;;;;10.35;1.70;;;;;;;18.12;61.70;99389.25;4295630;33;20041;-69
2022/09/03 08:51:57;;;;;;;5.72;1.12;;;;;;;17.96;61.11;99382.38;4309867;33;20418;-69
2022/09/03 08:54:28;;;;;;;3.25;1.58;;;;;;;17.99;60.82;99349.12;4315911;33;20192;-69
2022/09/03 08:57:00;;;;;;;2.50;1.50;;;;;;;18.42;61.48;99379.09;4327533;33;20032;-69
2022/09/03 08:59:28;;;;;;;4.37;1.50;;;;;;;18.51;57.47;99371.06;4311520;33;20049;-69
2022/09/03 09:02:01;;;;;;;7.37;1.45;;;;;;;18.32;57.62;99346.53;4310968;33;20074;-70
2022/09/03 09:04:37;;;;;;;1.70;1.60;;;;;;;18.80;63.02;99378.31;4302330;33;20067;-69
2022/09/03 09:07:12;;;;;;;6.60;1.70;;;;;;;18.70;57.33;99374.63;4325732;33;20040;-69
2022/09/03 09:09:47;;;;;;;1.62;1.52;;;;;;;18.61;58.81;99348.31;4323778;33;20375;-70
2022/09/03 09:12:38;;;;;;;4.12;1.52;;;;;;;18.77;57.16;99374.25;4309357;33;20070;-69
2022/09/03 09:15:12;;;;;;;1.67;1.50;;;;;;;18.74;56.33;99385.75;4294906;33;20125;-73
2022/09/03 09:18:06;;;;;;;2.97;1.33;;;;;;;18.58;53.22;99354.34;4298405;33;20041;-67
2022/09/03 09:20:43;;;;;;;1.80;1.23;;;;;;;19.11;57.51;99378.66;4300964;33;20049;-70
2022/09/03 09:23:18;;;;;;;1.70;1.60;;;;;;;18.83;52.40;99375.78;4310576;33;20041;-69
2022/09/03 09:25:48;;;;;;;1.98;1.87;;;;;;;18.84;49.67;99374.72;4309486;33;20052;-68
2022/09/03 09:28:23;;;;;;;2.85;1.87;;;;;;;18.88;49.67;99374.94;4306301;33;20051;-73
2022/09/03 09:30:56;;;;;;;4.00;2.30;;;;;;;18.78;51.70;99304.94;4291269;33;20479;-70
2022/09/03 09:33:24;;;;;;;2.33;1.67;;;;;;;19.02;51.22;99369.53;4275532;33;20464;-68
2022/09/03 09:35:50;;;;;;;8.60;1.77;;;;;;;18.99;50.24;99361.94;4283834;33;20106;-68
2022/09/03 09:38:29;;;;;;;5.37;2.10;;;;;;;18.91;51.63;99368.06;4294284;33;20071;-69
2022/09/03 09:40:57;;;;;;;2.10;1.67;;;;;;;18.94;51.34;99351.09;4296154;33;20045;-69
2022/09/03 09:43:23;;;;;;;1.73;1.62;;;;;;;18.75;55.88;99332.00;4297830;33;20191;-69
2022/09/03 09:45:52;;;;;;;4.28;2.70;;;;;;;19.23;53.20;99351.69;4306387;33;20029;-73
2022/09/03 09:48:30;;;;;;;2.85;2.05;;;;;;;19.04;51.36;99359.13;4335032;32;20033;-69
2022/09/03 09:51:10;;;;;;;2.55;1.77;;;;;;;18.90;50.41;99328.25;4325179;33;20058;-69
2022/09/03 09:53:38;;;;;;;3.10;1.58;;;;;;;19.35;50.75;99362.16;4314090;33;20382;-73
2022/09/03 09:56:05;;;;;;;2.00;1.70;;;;;;;19.53;53.95;99332.34;4323352;33;20445;-69
2022/09/03 09:58:33;;;;;;;5.25;1.90;;;;;;;19.94;51.46;99359.72;4326829;33;20462;-68
2022/09/03 10:01:13;;;;;;;7.65;1.80;;;;;;;19.43;49.70;99357.91;4312072;33;20062;-69
2022/09/03 10:03:54;;;;;;;2.72;1.83;;;;;;;19.70;53.77;99361.78;4291691;33;20053;-70
2022/09/03 10:09:15;;;;;;;3.55;1.25;;;;;;;19.91;51.45;99360.34;4286691;33;20059;-74
2022/09/03 10:12:18;;;;;;;2.60;1.60;;;;;;;20.01;50.87;99362.06;4296835;33;20478;-69
2022/09/03 10:14:52;;;;;;;3.90;1.80;;;;;;;19.95;54.59;99357.78;4306261;33;20045;-69
2022/09/03 10:17:27;;;;;;;2.03;1.50;;;;;;;19.57;52.93;99303.31;4281636;33;20051;-69
2022/09/03 10:23:19;;;;;;;2.33;1.67;;;;;;;19.57;51.71;99353.28;4311594;33;20037;-68
2022/09/03 10:26:06;;;;;;;5.37;1.80;;;;;;;20.05;51.72;99348.56;4336887;33;20367;-69
2022/09/03 10:28:40;;;;;;;1.90;1.67;;;;;;;20.00;50.86;99321.34;4340735;33;20029;-68
2022/09/03 10:31:18;;;;;;;2.70;1.73;;;;;;;19.88;50.25;99270.78;4340554;33;20040;-68
2022/09/03 10:33:58;;;;;;;12.13;1.70;;;;;;;20.00;49.69;99340.50;4326002;33;20266;-68
2022/09/03 10:36:35;;;;;;;1.98;1.67;;;;;;;20.22;49.57;99335.09;4326338;33;20044;-68
2022/09/03 10:39:10;;;;;;;2.60;1.45;;;;;;;20.15;49.16;99337.41;4319926;33;20054;-73
2022/09/03 10:42:14;;;;;;;1.75;1.40;;;;;;;19.92;48.03;99345.53;4325986;33;20066;-69
2022/09/03 10:44:59;;;;;;;1.92;1.55;;;;;;;20.21;50.52;99341.66;4329911;33;20063;-68
2022/09/03 10:47:50;;;;;;;8.60;3.75;;;;;;;20.24;47.16;99335.59;4342649;32;20434;-69
2022/09/03 10:50:26;;;;;;;7.47;3.92;;;;;;;19.87;48.63;99333.91;4326008;33;20027;-71
2022/09/03 10:53:18;;;;;;;1.83;1.60;;;;;;;20.17;47.02;99331.66;4324928;33;20115;-68
2022/09/03 10:56:30;;;;;;;5.47;1.80;;;;;;;20.32;47.34;99329.38;4323505;33;20040;-70
2022/09/03 10:59:14;;;;;;;5.30;1.87;;;;;;;20.73;48.46;99321.41;4322110;33;20075;-73
2022/09/03 11:01:53;;;;;;;1.50;1.42;;;;;;;20.51;49.95;99301.09;4378059;32;20039;-69
2022/09/03 11:04:25;;;;;;;2.20;1.60;;;;;;;21.11;49.47;99323.75;4353588;32;20353;-69
2022/09/03 11:06:57;;;;;;;2.35;1.92;;;;;;;21.37;45.77;99330.19;4351059;32;20039;-69
2022/09/03 11:09:30;;;;;;;3.25;1.80;;;;;;;21.37;45.71;99318.44;4338886;33;20070;-69
2022/09/03 11:12:03;;;;;;;2.25;1.70;;;;;;;21.95;44.52;99317.41;4339643;33;20044;-69
2022/09/03 11:15:02;;;;;;;2.20;1.80;;;;;;;21.95;46.18;99316.59;4339083;33;20057;-69
2022/09/03 11:17:37;;;;;;;5.40;2.17;;;;;;;21.22;45.17;99316.88;4344968;33;20165;-69
2022/09/03 11:20:18;;;;;;;4.70;2.30;;;;;;;21.31;44.42;99312.28;4337561;33;20385;-73
2022/09/03 11:22:47;;;;;;;11.88;1.85;;;;;;;20.95;41.27;99285.00;4325377;33;20464;-70
2022/09/03 11:25:16;;;;;;;1.92;1.62;;;;;;;21.49;42.99;99310.47;4309912;33;20037;-70
2022/09/03 11:27:55;;;;;;;2.83;2.30;;;;;;;21.55;43.70;99289.22;4308854;33;20025;-70
2022/09/03 11:30:39;;;;;;;1.90;1.80;;;;;;;21.70;43.59;99316.19;4310138;33;20066;-68
2022/09/03 11:33:10;;;;;;;4.10;1.87;;;;;;;21.23;45.27;99263.75;4328133;33;20040;-68
2022/09/03 11:35:41;;;;;;;4.35;2.12;;;;;;;21.40;43.92;99288.47;4337442;33;20040;-69
2022/09/03 11:38:13;;;;;;;3.17;1.92;;;;;;;22.20;43.57;99300.53;4339552;33;20029;-68
2022/09/03 11:41:11;;;;;;;4.50;2.55;;;;;;;22.88;45.12;99300.03;4317499;33;20040;-70
2022/09/03 11:43:38;;;;;;;13.57;2.22;;;;;;;22.28;43.82;99294.22;4319479;33;20058;-69
2022/09/03 11:46:13;;;;;;;5.47;1.80;;;;;;;21.42;41.76;99261.56;4316795;33;20036;-69
2022/09/03 11:48:42;;;;;;;7.15;2.05;;;;;;;22.14;42.50;99297.91;4316684;33;20025;-71
2022/09/03 11:51:36;;;;;;;4.05;2.15;;;;;;;21.46;43.49;99304.78;4324267;33;20066;-69
2022/09/03 11:54:05;;;;;;;2.72;2.20;;;;;;;20.92;43.09;99248.16;4339511;33;20033;-72
2022/09/03 11:56:34;;;;;;;2.22;1.92;;;;;;;21.52;43.46;99298.06;4351200;32;20077;-68
2022/09/03 11:59:12;;;;;;;2.80;1.90;;;;;;;21.67;44.39;99239.31;4371827;32;20331;-69
2022/09/03 12:01:46;;;;;;;6.20;1.95;;;;;;;22.14;44.26;99302.59;4380799;32;20043;-69
2022/09/03 12:04:16;;;;;;;7.55;1.83;;;;;;;21.59;45.29;99265.56;4401436;32;20048;-69
2022/09/03 12:07:01;;;;;;;4.68;1.87;;;;;;;22.03;44.19;99224.53;4417116;32;20380;-69
2022/09/03 12:09:33;;;;;;;3.40;1.75;;;;;;;22.49;42.06;99297.97;4417661;32;20026;-68